createdAt,value
2019-05-15T00:00:40.256Z,96217.00
2019-05-15T00:06:10.323Z,96213.00
2019-05-15T00:11:39.784Z,96195.00
2019-05-15T00:17:09.246Z,96194.00
2019-05-15T00:22:39.066Z,96190.00
2019-05-15T00:28:09.522Z,96182.00
2019-05-15T00:33:39.627Z,96181.00
2019-05-15T00:39:11.117Z,96184.00
2019-05-15T00:44:42.549Z,96180.00
2019-05-15T00:50:12.232Z,96167.00
2019-05-15T00:55:41.629Z,96167.00
2019-05-15T01:01:11.037Z,96154.00
2019-05-15T01:06:40.634Z,96148.00
2019-05-15T01:12:10.019Z,96143.00
2019-05-15T01:17:40.460Z,96136.00
2019-05-15T01:23:09.850Z,96138.00
2019-05-15T01:28:39.247Z,96127.00
2019-05-15T01:34:09.115Z,96126.00
2019-05-15T01:39:38.677Z,96119.00
2019-05-15T01:45:09.100Z,96125.00
2019-05-15T01:50:39.672Z,96114.00
2019-05-15T01:56:11.113Z,96103.00
2019-05-15T02:01:40.522Z,96099.00
2019-05-15T02:07:10.134Z,96092.00
2019-05-15T02:12:39.539Z,96097.00
2019-05-15T02:18:09.065Z,96093.00
2019-05-15T02:23:38.912Z,96086.00
2019-05-15T02:29:13.130Z,96083.00
2019-05-15T02:34:39.876Z,96082.00
2019-05-15T02:40:10.564Z,96079.00
2019-05-15T02:45:42.000Z,96076.00
2019-05-15T02:51:11.202Z,96064.00
2019-05-15T02:56:40.562Z,96063.00
2019-05-15T03:02:10.433Z,96063.00
2019-05-15T03:07:40.803Z,96060.00
2019-05-15T03:13:10.578Z,96058.00
2019-05-15T03:18:40.733Z,96054.00
2019-05-15T03:24:10.469Z,96054.00
2019-05-15T03:29:40.549Z,96050.00
2019-05-15T03:35:14.386Z,96055.00
2019-05-15T03:40:41.762Z,96048.00
2019-05-15T03:46:11.572Z,96046.00
2019-05-15T03:51:45.732Z,96050.00
2019-05-15T03:57:12.989Z,96047.00
2019-05-15T04:02:42.521Z,96054.00
2019-05-15T04:08:12.090Z,96052.00
2019-05-15T04:13:42.535Z,96048.00
2019-05-15T04:19:11.981Z,96035.00
2019-05-15T04:24:41.775Z,96032.00
2019-05-15T04:30:11.906Z,96030.00
2019-05-15T04:35:41.301Z,96030.00
2019-05-15T04:41:10.882Z,96021.00
2019-05-15T04:46:40.299Z,96031.00
2019-05-15T04:52:10.401Z,96034.00
2019-05-15T04:57:40.873Z,96029.00
2019-05-15T05:03:11.861Z,96028.00
2019-05-15T05:08:41.391Z,96036.00
2019-05-15T05:14:10.921Z,96038.00
2019-05-15T05:19:40.411Z,96035.00
2019-05-15T05:25:09.861Z,96036.00
2019-05-15T05:30:39.328Z,96024.00
2019-05-15T05:36:08.836Z,96033.00
2019-05-15T05:41:39.177Z,96032.00
2019-05-15T05:47:09.293Z,96019.00
2019-05-15T05:52:40.003Z,96031.00
2019-05-15T05:58:09.565Z,96021.00
2019-05-15T06:03:39.060Z,96035.00
2019-05-15T06:09:18.213Z,96033.00
2019-05-15T06:14:48.471Z,96035.00
2019-05-15T06:20:18.634Z,96035.00
2019-05-15T06:25:48.635Z,96035.00
2019-05-15T06:31:19.104Z,96043.00
2019-05-15T06:36:48.795Z,96040.00
2019-05-15T06:42:18.765Z,96046.00
2019-05-15T06:47:48.364Z,96045.00
2019-05-15T06:53:19.243Z,96044.00
2019-05-15T06:58:49.006Z,96042.00
2019-05-15T07:04:18.471Z,96043.00
2019-05-15T07:09:48.645Z,96046.00
2019-05-15T07:15:18.988Z,96054.00
2019-05-15T07:20:49.222Z,96061.00
2019-05-15T07:26:18.663Z,96053.00
2019-05-15T07:31:48.052Z,96058.00
2019-05-15T07:37:19.038Z,96065.00
2019-05-15T07:42:49.182Z,96061.00
2019-05-15T07:48:19.062Z,96055.00
2019-05-15T07:53:49.196Z,96057.00
2019-05-15T07:59:18.930Z,96064.00
2019-05-15T08:04:48.466Z,96060.00
2019-05-15T08:10:18.830Z,96064.00
2019-05-15T08:15:48.961Z,96056.00
2019-05-15T08:21:18.714Z,96059.00
2019-05-15T08:26:48.772Z,96056.00
2019-05-15T08:32:19.049Z,96058.00
2019-05-15T08:37:49.182Z,96055.00
2019-05-15T08:43:18.954Z,96057.00
2019-05-15T08:48:49.170Z,96066.00
2019-05-15T08:54:21.493Z,96060.00
2019-05-15T08:59:50.795Z,96068.00
2019-05-15T09:05:20.510Z,96055.00
2019-05-15T09:10:50.565Z,96046.00
2019-05-15T09:16:20.087Z,96044.00
2019-05-15T09:21:49.936Z,96040.00
2019-05-15T09:27:19.324Z,96036.00
2019-05-15T09:32:53.615Z,96037.00
2019-05-15T09:38:22.957Z,96039.00
2019-05-15T09:43:53.246Z,96039.00
2019-05-15T09:49:23.100Z,96033.00
2019-05-15T09:54:52.728Z,96040.00
2019-05-15T10:00:23.011Z,96027.00
2019-05-15T10:05:52.466Z,96014.00
2019-05-15T10:11:21.853Z,96025.00
2019-05-15T10:16:51.577Z,96014.00
2019-05-15T10:22:21.013Z,96015.00
2019-05-15T10:27:50.415Z,96008.00
2019-05-15T10:33:20.608Z,95999.00
2019-05-15T10:38:50.171Z,96004.00
2019-05-15T10:44:21.726Z,96000.00
2019-05-15T10:49:50.753Z,95999.00
2019-05-15T10:55:20.163Z,95984.00
2019-05-15T11:00:49.813Z,95990.00
2019-05-15T11:06:19.375Z,95996.00
2019-05-15T11:11:51.579Z,95976.00
2019-05-15T11:17:20.252Z,95964.00
2019-05-15T11:22:50.196Z,95972.00
2019-05-15T11:28:19.662Z,95979.00
2019-05-15T11:33:49.409Z,95971.00
2019-05-15T11:39:18.787Z,95965.00
2019-05-15T11:44:48.481Z,95961.00
2019-05-15T11:50:20.501Z,95965.00
2019-05-15T11:55:50.074Z,95972.00
2019-05-15T12:01:19.792Z,95971.00
2019-05-15T12:06:58.737Z,95958.00
2019-05-15T12:12:20.431Z,95970.00
2019-05-15T12:17:49.837Z,95971.00
2019-05-15T12:23:19.243Z,95964.00
2019-05-15T12:28:49.094Z,95973.00
2019-05-15T12:34:19.098Z,95982.00
2019-05-15T12:39:49.271Z,95972.00
2019-05-15T13:01:52.529Z,95952.00
2019-05-15T13:07:23.455Z,95950.00
2019-05-15T13:13:00.910Z,95946.00
2019-05-15T13:18:24.530Z,95943.00
2019-05-15T13:23:53.927Z,95944.00
2019-05-15T13:29:23.407Z,95951.00
2019-05-15T13:34:52.922Z,95951.00
2019-05-15T13:40:37.607Z,95949.00
2019-05-15T13:46:00.519Z,95947.00
2019-05-15T13:51:29.945Z,95951.00
2019-05-15T13:56:59.278Z,95947.00
2019-05-15T14:02:28.596Z,95942.00
2019-05-15T14:07:58.392Z,95941.00
2019-05-15T14:13:28.642Z,95931.00
2019-05-15T14:18:58.830Z,95929.00
2019-05-15T14:24:28.549Z,95920.00
2019-05-15T14:29:58.226Z,95930.00
2019-05-15T14:35:27.466Z,95924.00
2019-05-15T14:40:58.981Z,95921.00
2019-05-15T14:46:28.267Z,95916.00
2019-05-15T14:52:08.491Z,95916.00
2019-05-15T14:57:32.996Z,95922.00
2019-05-15T15:03:02.422Z,95915.00
2019-05-15T15:08:32.780Z,95914.00
2019-05-15T15:14:02.475Z,95916.00
2019-05-15T15:19:32.094Z,95917.00
2019-05-15T15:25:09.918Z,95916.00
2019-05-15T15:30:38.707Z,95915.00
2019-05-15T15:36:09.563Z,95914.00
2019-05-15T15:41:39.193Z,95910.00
2019-05-15T15:47:08.873Z,95905.00
2019-05-15T15:52:38.831Z,95909.00
2019-05-15T15:58:10.277Z,95900.00
2019-05-15T16:03:40.183Z,95905.00
2019-05-15T16:09:09.911Z,95910.00
2019-05-15T16:14:39.456Z,95910.00
2019-05-15T16:20:10.794Z,95898.00
2019-05-15T16:25:40.243Z,95900.00
2019-05-15T16:31:09.775Z,95910.00
2019-05-15T16:36:41.055Z,95907.00
2019-05-15T16:42:10.627Z,95903.00
2019-05-15T16:47:40.294Z,95906.00
2019-05-15T16:53:11.432Z,95904.00
2019-05-15T16:58:41.622Z,95911.00
2019-05-15T17:04:11.234Z,95912.00
2019-05-15T17:09:41.937Z,95902.00
2019-05-15T17:15:11.674Z,95902.00
2019-05-15T17:20:41.096Z,95896.00
2019-05-15T17:26:10.796Z,95897.00
2019-05-15T17:31:40.295Z,95902.00
2019-05-15T17:37:09.668Z,95903.00
2019-05-15T17:42:39.334Z,95904.00
2019-05-15T17:48:12.329Z,95909.00
2019-05-15T17:53:42.180Z,95908.00
2019-05-15T17:59:12.155Z,95905.00
2019-05-15T18:04:41.999Z,95900.00
2019-05-15T18:10:13.032Z,95904.00
2019-05-15T18:15:44.231Z,95912.00
2019-05-15T18:21:15.264Z,95908.00
2019-05-15T18:26:49.129Z,95917.00
2019-05-15T18:32:19.010Z,95914.00
2019-05-15T18:37:49.158Z,95914.00
2019-05-15T18:43:19.058Z,95922.00
2019-05-15T18:48:49.088Z,95912.00
2019-05-15T18:54:21.607Z,95912.00
2019-05-15T19:00:08.793Z,95914.00
2019-05-15T19:05:43.091Z,95920.00
2019-05-15T19:11:12.630Z,95928.00
2019-05-15T19:16:41.906Z,95931.00
2019-05-15T19:22:12.264Z,95930.00
2019-05-15T19:27:41.620Z,95929.00
2019-05-15T19:33:13.199Z,95927.00
2019-05-15T19:38:42.479Z,95929.00
2019-05-15T19:44:11.826Z,95926.00
2019-05-15T19:49:41.180Z,95929.00
2019-05-15T19:55:11.686Z,95936.00
2019-05-15T20:00:41.079Z,95937.00
2019-05-15T20:06:11.773Z,95934.00
2019-05-15T20:11:41.135Z,95926.00
2019-05-15T20:17:10.407Z,95926.00
2019-05-15T20:22:41.845Z,95927.00
2019-05-15T20:28:10.877Z,95925.00
2019-05-15T20:33:40.140Z,95918.00
2019-05-15T20:39:11.297Z,95911.00
2019-05-15T20:44:40.573Z,95916.00
2019-05-15T20:50:11.230Z,95911.00
2019-05-15T20:55:40.577Z,95906.00
2019-05-15T21:01:09.851Z,95902.00
2019-05-15T21:06:39.199Z,95896.00
2019-05-15T21:12:09.836Z,95887.00
2019-05-15T21:17:40.898Z,95898.00
2019-05-15T21:23:10.323Z,95886.00
2019-05-15T21:28:40.568Z,95888.00
2019-05-15T21:34:10.010Z,95891.00
2019-05-15T21:39:39.338Z,95878.00
2019-05-15T21:45:14.888Z,95878.00
2019-05-15T21:50:42.688Z,95872.00
2019-05-15T21:56:13.601Z,95865.00
2019-05-15T22:01:43.050Z,95858.00
2019-05-15T22:07:13.579Z,95857.00
2019-05-15T22:12:42.858Z,95851.00
2019-05-15T22:18:12.144Z,95851.00
2019-05-15T22:23:41.393Z,95847.00
2019-05-15T22:29:10.671Z,95843.00
2019-05-15T22:34:39.946Z,95824.00
2019-05-15T22:40:09.425Z,95831.00
2019-05-15T22:45:38.706Z,95823.00
2019-05-15T22:51:07.973Z,95816.00
2019-05-15T22:56:37.835Z,95815.00
2019-05-15T23:02:09.242Z,95808.00
2019-05-15T23:07:38.976Z,95801.00
2019-05-15T23:13:10.423Z,95801.00
2019-05-15T23:18:39.677Z,95795.00
2019-05-15T23:24:09.875Z,95782.00
2019-05-15T23:29:39.134Z,95784.00
2019-05-15T23:35:08.658Z,95772.00
2019-05-15T23:40:38.862Z,95769.00
2019-05-15T23:46:08.158Z,95749.00
2019-05-15T23:51:39.341Z,95746.00
2019-05-15T23:57:09.068Z,95745.00
